createdAt,value
2017-08-05T00:00:11.662Z,18.05
2017-08-05T00:01:12.076Z,18.02
2017-08-05T00:02:12.806Z,17.96
2017-08-05T00:03:12.833Z,17.94
2017-08-05T00:04:12.565Z,18.01
2017-08-05T00:05:12.908Z,18.02
2017-08-05T00:06:12.938Z,17.88
2017-08-05T00:07:12.977Z,17.98
2017-08-05T00:08:13.009Z,17.94
2017-08-05T00:09:13.045Z,17.94
2017-08-05T00:10:13.078Z,17.96
2017-08-05T00:11:13.111Z,18.01
2017-08-05T00:12:13.148Z,17.98
2017-08-05T00:13:12.852Z,18.02
2017-08-05T00:14:13.284Z,18.06
2017-08-05T00:15:13.643Z,18.08
2017-08-05T00:16:13.748Z,18.14
2017-08-05T00:17:13.776Z,18.11
2017-08-05T00:18:13.824Z,18.1
2017-08-05T00:19:13.525Z,18.05
2017-08-05T00:20:13.584Z,18.13
2017-08-05T00:21:13.922Z,18.13
2017-08-05T00:22:13.957Z,18.11
2017-08-05T00:23:13.663Z,18.11
2017-08-05T00:24:14.034Z,18.06
2017-08-05T00:25:13.731Z,18.01
2017-08-05T00:26:13.765Z,18.08
2017-08-05T00:27:14.132Z,17.99
2017-08-05T00:28:14.170Z,17.99
2017-08-05T00:29:13.876Z,18.03
2017-08-05T00:30:14.624Z,17.96
2017-08-05T00:31:14.351Z,18.05
2017-08-05T00:32:14.697Z,18.02
2017-08-05T00:33:14.731Z,17.87
2017-08-05T00:34:14.508Z,17.99
2017-08-05T00:35:15.252Z,17.84
2017-08-05T00:36:15.285Z,17.86
2017-08-05T00:37:15.325Z,17.83
2017-08-05T00:38:15.359Z,17.9
2017-08-05T00:39:15.399Z,17.81
2017-08-05T00:40:15.428Z,17.86
2017-08-05T00:41:15.130Z,17.83
2017-08-05T00:42:15.492Z,17.83
2017-08-05T00:43:15.532Z,17.76
2017-08-05T00:44:15.259Z,17.77
2017-08-05T00:45:15.606Z,17.84
2017-08-05T00:46:15.329Z,17.68
2017-08-05T00:47:15.675Z,17.76
2017-08-05T00:48:15.712Z,17.74
2017-08-05T00:49:15.424Z,17.87
2017-08-05T00:50:16.183Z,17.79
2017-08-05T00:51:15.907Z,17.84
2017-08-05T00:52:16.255Z,17.86
2017-08-05T00:53:16.282Z,17.87
2017-08-05T00:54:16.327Z,17.81
2017-08-05T00:55:16.355Z,17.9
2017-08-05T00:56:16.383Z,17.84
2017-08-05T00:57:16.427Z,17.88
2017-08-05T00:58:16.462Z,17.87
2017-08-05T00:59:16.506Z,17.9
2017-08-05T01:00:16.624Z,17.87
2017-08-05T01:01:15.970Z,17.8
2017-08-05T01:02:16.849Z,17.73
2017-08-05T01:03:16.782Z,17.71
2017-08-05T01:04:16.818Z,17.68
2017-08-05T01:05:16.952Z,17.58
2017-08-05T01:06:16.884Z,17.63
2017-08-05T01:07:16.614Z,17.6
2017-08-05T01:08:16.712Z,17.6
2017-08-05T01:09:17.062Z,17.6
2017-08-05T01:10:17.254Z,17.58
2017-08-05T01:11:17.152Z,17.52
2017-08-05T01:12:17.169Z,17.5
2017-08-05T01:13:17.210Z,17.5
2017-08-05T01:14:17.237Z,17.47
2017-08-05T01:15:17.378Z,17.45
2017-08-05T01:16:17.727Z,17.46
2017-08-05T01:17:17.776Z,17.5
2017-08-05T01:18:17.486Z,17.46
2017-08-05T01:19:17.831Z,17.52
2017-08-05T01:20:17.538Z,17.45
2017-08-05T01:21:17.903Z,17.3
2017-08-05T01:22:17.937Z,17.31
2017-08-05T01:23:17.975Z,17.38
2017-08-05T01:24:18.006Z,17.32
2017-08-05T01:25:18.042Z,17.31
2017-08-05T01:26:18.073Z,17.35
2017-08-05T01:27:18.114Z,17.36
2017-08-05T01:28:18.141Z,17.42
2017-08-05T01:29:18.182Z,17.47
2017-08-05T01:30:18.230Z,17.46
2017-08-05T01:31:17.614Z,17.43
2017-08-05T01:32:18.379Z,17.5
2017-08-05T01:33:18.397Z,17.4
2017-08-05T01:34:18.432Z,17.45
2017-08-05T01:35:18.463Z,17.45
2017-08-05T01:36:18.500Z,17.42
2017-08-05T01:37:18.532Z,17.4
2017-08-05T01:38:18.570Z,17.49
2017-08-05T01:39:18.601Z,17.45
2017-08-05T01:40:18.637Z,17.45
2017-08-05T01:41:18.348Z,17.52
2017-08-05T01:42:19.068Z,17.42
2017-08-05T01:43:19.116Z,17.32
2017-08-05T01:44:18.813Z,17.27
2017-08-05T01:45:19.176Z,17.21
2017-08-05T01:46:18.881Z,17.27
2017-08-05T01:47:19.245Z,17.18
2017-08-05T01:48:19.274Z,17.12
2017-08-05T01:49:19.321Z,17.09
2017-08-05T01:50:19.021Z,17.02
2017-08-05T01:51:19.745Z,17.07
2017-08-05T01:52:19.467Z,17
2017-08-05T01:53:19.819Z,17.05
2017-08-05T01:54:19.852Z,16.92
2017-08-05T01:55:19.877Z,16.91
2017-08-05T01:56:19.923Z,16.95
2017-08-05T01:57:19.952Z,16.95
2017-08-05T01:58:19.983Z,16.97
2017-08-05T01:59:20.025Z,16.97
2017-08-05T02:00:20.057Z,16.92
2017-08-05T02:01:20.097Z,16.85
2017-08-05T02:02:20.142Z,16.92
2017-08-05T02:03:20.163Z,16.91
2017-08-05T02:04:20.600Z,16.88
2017-08-05T02:05:20.628Z,16.9
2017-08-05T02:06:20.663Z,16.9
2017-08-05T02:07:20.698Z,16.94
2017-08-05T02:08:20.738Z,16.84
2017-08-05T02:09:20.773Z,16.87
2017-08-05T02:10:20.802Z,16.82
2017-08-05T02:11:20.835Z,16.84
2017-08-05T02:12:20.872Z,16.85
2017-08-05T02:13:20.599Z,16.82
2017-08-05T02:14:20.945Z,16.81
2017-08-05T02:15:20.669Z,16.81
2017-08-05T02:16:21.398Z,16.85
2017-08-05T02:17:21.419Z,16.82
2017-08-05T02:18:21.455Z,16.73
2017-08-05T02:19:21.495Z,16.77
2017-08-05T02:20:21.529Z,16.76
2017-08-05T02:21:21.568Z,16.7
2017-08-05T02:22:21.601Z,16.72
2017-08-05T02:23:21.628Z,16.73
2017-08-05T02:24:21.344Z,16.74
2017-08-05T02:25:21.710Z,16.72
2017-08-05T02:26:21.726Z,16.67
2017-08-05T02:27:21.767Z,16.73
2017-08-05T02:28:21.809Z,16.82
2017-08-05T02:29:21.836Z,16.84
2017-08-05T02:30:21.867Z,16.77
2017-08-05T02:31:21.913Z,16.8
2017-08-05T02:32:21.951Z,16.84
2017-08-05T02:33:21.973Z,16.85
2017-08-05T02:34:22.018Z,16.82
2017-08-05T02:35:22.047Z,16.81
2017-08-05T02:36:22.077Z,16.85
2017-08-05T02:37:22.117Z,16.81
2017-08-05T02:38:22.154Z,16.81
2017-08-05T02:39:22.183Z,16.8
2017-08-05T02:40:21.908Z,16.82
2017-08-05T02:41:22.252Z,16.81
2017-08-05T02:42:22.280Z,16.76
2017-08-05T02:43:22.325Z,16.74
2017-08-05T02:44:22.358Z,16.67
2017-08-05T02:45:22.056Z,16.74
2017-08-05T02:46:22.425Z,16.67
2017-08-05T02:47:22.469Z,16.77
2017-08-05T02:48:22.508Z,16.65
2017-08-05T02:49:22.525Z,16.66
2017-08-05T02:50:22.580Z,16.69
2017-08-05T02:51:22.985Z,16.67
2017-08-05T02:52:22.689Z,16.67
2017-08-05T02:53:23.048Z,16.66
2017-08-05T02:54:23.091Z,16.66
2017-08-05T02:55:22.804Z,16.73
2017-08-05T02:56:23.210Z,16.72
2017-08-05T02:57:23.244Z,16.66
2017-08-05T02:58:23.271Z,16.66
2017-08-05T02:59:23.311Z,16.65
2017-08-05T03:00:23.352Z,16.7
2017-08-05T03:01:23.375Z,16.69
2017-08-05T03:02:23.422Z,16.7
2017-08-05T03:03:23.460Z,16.72
2017-08-05T03:04:23.482Z,16.74
2017-08-05T03:05:23.518Z,16.76
2017-08-05T03:06:23.555Z,16.69
2017-08-05T03:07:23.593Z,16.74
2017-08-05T03:08:23.627Z,16.74
2017-08-05T03:09:23.649Z,16.76
2017-08-05T03:10:23.741Z,16.74
2017-08-05T03:11:24.207Z,16.77
2017-08-05T03:12:24.216Z,16.8
2017-08-05T03:13:24.239Z,16.91
2017-08-05T03:14:23.971Z,16.8
2017-08-05T03:15:24.324Z,16.81
2017-08-05T03:16:24.349Z,16.77
2017-08-05T03:17:24.077Z,16.7
2017-08-05T03:18:24.420Z,16.84
2017-08-05T03:19:24.455Z,16.84
2017-08-05T03:20:24.485Z,16.8
2017-08-05T03:21:24.529Z,16.72
2017-08-05T03:22:24.556Z,16.72
2017-08-05T03:23:24.589Z,16.8
2017-08-05T03:24:24.298Z,16.73
2017-08-05T03:25:24.731Z,16.72
2017-08-05T03:26:25.082Z,16.7
2017-08-05T03:27:25.488Z,16.72
2017-08-05T03:28:25.208Z,16.69
2017-08-05T03:29:25.256Z,16.69
2017-08-05T03:30:26.013Z,16.58
2017-08-05T03:31:26.049Z,16.55
2017-08-05T03:32:26.071Z,16.57
2017-08-05T03:33:26.107Z,16.54
2017-08-05T03:34:26.151Z,16.47
2017-08-05T03:35:25.862Z,16.4
2017-08-05T03:36:26.222Z,16.36
2017-08-05T03:37:26.250Z,16.48
2017-08-05T03:38:26.277Z,16.39
2017-08-05T03:39:25.990Z,16.36
2017-08-05T03:40:26.029Z,16.33
2017-08-05T03:41:26.063Z,16.32
2017-08-05T03:42:26.426Z,16.22
2017-08-05T03:43:26.459Z,16.29
2017-08-05T03:44:26.480Z,16.29
2017-08-05T03:45:26.221Z,16.26
2017-08-05T03:46:26.553Z,16.27
2017-08-05T03:47:26.592Z,16.33
2017-08-05T03:48:26.629Z,16.27
2017-08-05T03:49:26.660Z,16.17
2017-08-05T03:50:26.693Z,16.21
2017-08-05T03:51:26.422Z,16.26
2017-08-05T03:52:26.760Z,16.26
2017-08-05T03:53:26.790Z,16.25
2017-08-05T03:54:26.832Z,16.22
2017-08-05T03:55:26.547Z,16.21
2017-08-05T03:56:26.945Z,16.14
2017-08-05T03:57:26.932Z,16.18
2017-08-05T03:58:26.644Z,16.27
2017-08-05T03:59:26.694Z,16.25
2017-08-05T04:00:27.150Z,16.18
2017-08-05T04:01:27.166Z,16.18
2017-08-05T04:02:27.186Z,16.11
2017-08-05T04:03:26.601Z,16.25
2017-08-05T04:04:27.270Z,16.17
2017-08-05T04:05:27.097Z,16.11
2017-08-05T04:06:27.142Z,16.14
2017-08-05T04:07:27.162Z,16.16
2017-08-05T04:08:27.875Z,16.14
2017-08-05T04:09:27.868Z,16.18
2017-08-05T04:10:27.900Z,16.16
2017-08-05T04:11:28.264Z,16.18
2017-08-05T04:12:28.011Z,16.18
2017-08-05T04:13:28.369Z,16.18
2017-08-05T04:14:28.366Z,16.16
2017-08-05T04:15:28.404Z,16.25
2017-08-05T04:16:28.436Z,16.32
2017-08-05T04:17:28.490Z,16.27
2017-08-05T04:18:28.505Z,16.3
2017-08-05T04:19:28.276Z,16.32
2017-08-05T04:20:28.278Z,16.26
2017-08-05T04:21:28.281Z,16.26
2017-08-05T04:22:28.336Z,16.36
2017-08-05T04:23:28.427Z,16.33
2017-08-05T04:24:28.765Z,16.37
2017-08-05T04:25:29.134Z,16.37
2017-08-05T04:26:29.202Z,16.44
2017-08-05T04:27:28.942Z,16.36
2017-08-05T04:28:29.302Z,16.39
2017-08-05T04:29:29.350Z,16.48
2017-08-05T04:30:30.046Z,16.47
2017-08-05T04:31:30.070Z,16.45
2017-08-05T04:32:29.776Z,16.51
2017-08-05T04:33:30.132Z,16.57
2017-08-05T04:34:29.862Z,16.63
2017-08-05T04:35:30.261Z,16.65
2017-08-05T04:36:29.954Z,16.67
2017-08-05T04:37:30.309Z,16.63
2017-08-05T04:38:30.359Z,16.76
2017-08-05T04:39:30.372Z,16.74
2017-08-05T04:40:30.423Z,16.8
2017-08-05T04:41:30.444Z,16.76
2017-08-05T04:42:30.483Z,16.81
2017-08-05T04:43:30.525Z,16.87
2017-08-05T04:44:30.250Z,16.81
2017-08-05T04:45:30.590Z,16.94
2017-08-05T04:46:30.639Z,16.95
2017-08-05T04:47:30.977Z,16.91
2017-08-05T04:48:31.054Z,17.05
2017-08-05T04:49:30.473Z,17.03
2017-08-05T04:50:31.131Z,17.13
2017-08-05T04:51:31.500Z,17.18
2017-08-05T04:52:31.249Z,17.18
2017-08-05T04:53:31.558Z,17.22
2017-08-05T04:54:31.607Z,17.38
2017-08-05T04:55:31.320Z,17.27
2017-08-05T04:56:32.004Z,17.38
2017-08-05T04:57:31.386Z,17.52
2017-08-05T04:58:32.368Z,17.45
2017-08-05T04:59:32.387Z,17.43
2017-08-05T05:00:32.460Z,17.49
2017-08-05T05:01:32.164Z,17.55
2017-08-05T05:02:32.287Z,17.6
2017-08-05T05:03:32.286Z,17.71
2017-08-05T05:04:32.935Z,17.76
2017-08-05T05:05:32.645Z,17.79
2017-08-05T05:06:33.001Z,17.8
2017-08-05T05:07:33.064Z,17.84
2017-08-05T05:08:33.093Z,17.9
2017-08-05T05:09:33.448Z,17.9
2017-08-05T05:10:33.169Z,18.01
2017-08-05T05:11:33.511Z,18.05
2017-08-05T05:12:33.858Z,18.05
2017-08-05T05:13:33.588Z,18.13
2017-08-05T05:14:33.927Z,18.11
2017-08-05T05:15:33.965Z,18.16
2017-08-05T05:16:34.025Z,18.2
2017-08-05T05:17:34.353Z,18.17
2017-08-05T05:18:34.380Z,18.21
2017-08-05T05:19:34.447Z,18.29
2017-08-05T05:20:34.170Z,18.32
2017-08-05T05:21:34.494Z,18.31
2017-08-05T05:22:34.234Z,18.39
2017-08-05T05:23:34.592Z,18.39
2017-08-05T05:24:34.610Z,18.45
2017-08-05T05:25:34.656Z,18.42
2017-08-05T05:26:34.745Z,18.5
2017-08-05T05:27:35.095Z,18.54
2017-08-05T05:28:34.776Z,18.6
2017-08-05T05:29:35.166Z,18.61
2017-08-05T05:30:35.175Z,18.69
2017-08-05T05:31:35.246Z,18.84
2017-08-05T05:32:35.226Z,18.89
2017-08-05T05:33:34.971Z,19
2017-08-05T05:34:35.305Z,19.16
2017-08-05T05:35:35.370Z,19.34
2017-08-05T05:36:35.075Z,19.5
2017-08-05T05:37:35.424Z,19.68
2017-08-05T05:38:35.441Z,19.83
2017-08-05T05:39:35.477Z,19.89
2017-08-05T05:40:35.510Z,19.98
2017-08-05T05:41:35.577Z,20.04
2017-08-05T05:42:35.962Z,20.02
2017-08-05T05:43:36.003Z,20.01
2017-08-05T05:44:35.707Z,20.08
2017-08-05T05:45:36.047Z,20.05
2017-08-05T05:46:36.078Z,20.26
2017-08-05T05:47:36.107Z,20.57
2017-08-05T05:48:36.163Z,20.94
2017-08-05T05:49:36.868Z,21.03
2017-08-05T05:50:36.845Z,21.34
2017-08-05T05:51:36.875Z,21.18
2017-08-05T05:52:36.910Z,21.37
2017-08-05T05:53:36.656Z,21.3
2017-08-05T05:54:37.044Z,21.3
2017-08-05T05:55:37.421Z,21.31
2017-08-05T05:56:37.111Z,21.25
2017-08-05T05:57:37.451Z,21.22
2017-08-05T05:58:37.504Z,21.22
2017-08-05T05:59:36.911Z,21.22
2017-08-05T06:00:37.918Z,21.19
2017-08-05T06:01:37.644Z,21.23
2017-08-05T06:02:37.984Z,21.25
2017-08-05T06:03:37.701Z,21.43
2017-08-05T06:04:38.320Z,21.71
2017-08-05T06:05:38.404Z,21.93
2017-08-05T06:06:38.092Z,22.18
2017-08-05T06:07:38.435Z,22.24
2017-08-05T06:08:38.132Z,22.26
2017-08-05T06:09:38.178Z,22.29
2017-08-05T06:10:38.196Z,22.18
2017-08-05T06:11:38.262Z,22.23
2017-08-05T06:12:38.891Z,22.44
2017-08-05T06:13:38.940Z,22.99
2017-08-05T06:14:38.955Z,23.7
2017-08-05T06:15:39.000Z,24.46
2017-08-05T06:16:38.709Z,25.23
2017-08-05T06:17:39.386Z,25.33
2017-08-05T06:18:39.419Z,25.39
2017-08-05T06:19:39.468Z,25.85
2017-08-05T06:20:39.556Z,26.86
2017-08-05T06:21:39.642Z,27.9
2017-08-05T06:22:39.996Z,28.54
2017-08-05T06:23:40.041Z,29.43
2017-08-05T06:24:40.098Z,30.39
2017-08-05T06:25:40.132Z,31.21
2017-08-05T06:26:39.832Z,31.86
2017-08-05T06:27:40.226Z,32.42
2017-08-05T06:28:40.228Z,32.8
2017-08-05T06:29:40.275Z,33.24
2017-08-05T06:30:40.335Z,33.68
2017-08-05T06:31:40.101Z,34.06
2017-08-05T06:32:40.476Z,34.3
2017-08-05T06:33:40.534Z,34.55
2017-08-05T06:34:40.599Z,34.9
2017-08-05T06:35:41.030Z,35.08
2017-08-05T06:36:41.065Z,35.3
2017-08-05T06:37:41.120Z,35.35
2017-08-05T06:38:41.803Z,35.49
2017-08-05T06:39:41.824Z,35.76
2017-08-05T06:40:41.894Z,36.17
2017-08-05T06:41:41.993Z,36.53
2017-08-05T06:42:41.958Z,36.92
2017-08-05T06:43:42.039Z,36.97
2017-08-05T06:44:42.049Z,37.05
2017-08-05T06:45:42.227Z,37.09
2017-08-05T06:46:42.136Z,37.24
2017-08-05T06:47:42.160Z,37.36
2017-08-05T06:48:42.207Z,37.66
2017-08-05T06:49:42.264Z,38.08
2017-08-05T06:50:42.626Z,38.08
2017-08-05T06:51:42.372Z,38.03
2017-08-05T06:52:43.097Z,38.2
2017-08-05T06:53:43.099Z,38.36
2017-08-05T06:54:42.835Z,38.46
2017-08-05T06:55:43.202Z,38.66
2017-08-05T06:56:43.625Z,38.83
2017-08-05T06:57:43.656Z,39.12
2017-08-05T06:58:43.061Z,39.31
2017-08-05T06:59:44.087Z,39.52
2017-08-05T07:00:44.119Z,39.74
2017-08-05T07:01:43.940Z,39.9
2017-08-05T07:02:44.486Z,39.93
2017-08-05T07:03:44.288Z,40.05
2017-08-05T07:04:43.962Z,40.02
2017-08-05T07:05:44.670Z,40.31
2017-08-05T07:06:44.727Z,40.5
2017-08-05T07:07:44.805Z,40.41
2017-08-05T07:08:44.893Z,40.36
2017-08-05T07:09:44.950Z,40.25
2017-08-05T07:10:45.353Z,40.38
2017-08-05T07:11:45.051Z,40.47
2017-08-05T07:12:45.369Z,40.45
2017-08-05T07:13:45.723Z,40.51
2017-08-05T07:14:45.791Z,40.59
2017-08-05T07:15:45.831Z,40.6
2017-08-05T07:16:45.889Z,40.74
2017-08-05T07:17:45.623Z,40.32
2017-08-05T07:18:45.329Z,39.79
2017-08-05T07:19:45.989Z,39.38
2017-08-05T07:20:46.819Z,39.37
2017-08-05T07:21:46.536Z,39.49
2017-08-05T07:22:46.896Z,39.57
2017-08-05T07:23:46.942Z,39.56
2017-08-05T07:24:47.336Z,39.47
2017-08-05T07:25:47.328Z,39.67
2017-08-05T07:26:47.396Z,39.9
2017-08-05T07:27:47.443Z,40.24
2017-08-05T07:28:47.480Z,40.47
2017-08-05T07:29:47.524Z,40.77
2017-08-05T07:30:47.656Z,41.03
2017-08-05T07:31:47.603Z,41.12
2017-08-05T07:32:47.675Z,41.37
2017-08-05T07:33:47.715Z,41.54
2017-08-05T07:34:47.851Z,41.68
2017-08-05T07:35:48.273Z,41.89
2017-08-05T07:36:48.195Z,42.2
2017-08-05T07:37:47.944Z,42.45
2017-08-05T07:38:48.630Z,42.57
2017-08-05T07:39:48.671Z,42.71
2017-08-05T07:40:48.732Z,42.76
2017-08-05T07:41:48.789Z,42.85
2017-08-05T07:42:49.166Z,42.86
2017-08-05T07:43:48.854Z,42.92
2017-08-05T07:44:49.612Z,43.15
2017-08-05T07:45:49.598Z,43.24
2017-08-05T07:46:49.627Z,43.28
2017-08-05T07:47:49.722Z,43.33
2017-08-05T07:48:49.744Z,43.42
2017-08-05T07:49:49.762Z,43.55
2017-08-05T07:50:49.859Z,43.44
2017-08-05T07:51:49.898Z,43.46
2017-08-05T07:52:50.201Z,43.65
2017-08-05T07:53:49.656Z,43.85
2017-08-05T07:54:50.023Z,43.99
2017-08-05T07:55:49.766Z,44.15
2017-08-05T07:56:50.206Z,44.27
2017-08-05T07:57:50.904Z,44.15
2017-08-05T07:58:50.970Z,43.97
2017-08-05T07:59:50.667Z,43.77
2017-08-05T08:00:51.047Z,43.81
2017-08-05T08:01:51.157Z,43.74
2017-08-05T08:02:51.171Z,43.77
2017-08-05T08:03:50.894Z,43.66
2017-08-05T08:04:51.243Z,43.81
2017-08-05T08:05:51.255Z,43.77
2017-08-05T08:06:51.031Z,43.7
2017-08-05T08:07:51.625Z,43.64
2017-08-05T08:08:51.422Z,43.55
2017-08-05T08:09:51.477Z,43.59
2017-08-05T08:10:51.205Z,43.61
2017-08-05T08:11:51.260Z,43.73
2017-08-05T08:12:51.287Z,43.64
2017-08-05T08:13:51.674Z,43.78
2017-08-05T08:14:51.701Z,43.96
2017-08-05T08:15:51.763Z,43.77
2017-08-05T08:16:51.798Z,43.36
2017-08-05T08:17:51.842Z,43.01
2017-08-05T08:18:51.895Z,43.07
2017-08-05T08:19:51.935Z,43.66
2017-08-05T08:20:52.062Z,44.12
2017-08-05T08:21:52.051Z,43.74
2017-08-05T08:22:51.797Z,42.74
2017-08-05T08:23:52.144Z,41.5
2017-08-05T08:24:51.844Z,40.43
2017-08-05T08:25:52.240Z,39.2
2017-08-05T08:26:52.643Z,38.08
2017-08-05T08:27:52.672Z,37.18
2017-08-05T08:28:52.729Z,36.63
2017-08-05T08:29:52.747Z,36.39
2017-08-05T08:30:52.487Z,36.32
2017-08-05T08:31:52.537Z,35.98
2017-08-05T08:32:52.914Z,35.69
2017-08-05T08:33:52.612Z,35.33
2017-08-05T08:34:52.989Z,35.11
2017-08-05T08:35:53.142Z,35.04
2017-08-05T08:36:53.069Z,35.98
2017-08-05T08:37:53.133Z,36.78
2017-08-05T08:38:53.167Z,36.83
2017-08-05T08:39:52.876Z,36.17
2017-08-05T08:40:52.973Z,35.6
2017-08-05T08:41:53.307Z,35.09
2017-08-05T08:42:53.335Z,34.59
2017-08-05T08:43:53.400Z,34.33
2017-08-05T08:44:53.456Z,34
2017-08-05T08:45:53.482Z,33.56
2017-08-05T08:46:53.522Z,33.21
2017-08-05T08:47:53.608Z,32.64
2017-08-05T08:48:53.597Z,32.12
2017-08-05T08:49:53.640Z,31.63
2017-08-05T08:50:53.095Z,31.33
2017-08-05T08:51:53.437Z,31.06
2017-08-05T08:52:53.831Z,30.93
2017-08-05T08:53:54.156Z,30.88
2017-08-05T08:54:54.243Z,30.93
2017-08-05T08:55:53.975Z,30.75
2017-08-05T08:56:54.697Z,30.57
2017-08-05T08:57:54.739Z,30.29
2017-08-05T08:58:54.797Z,30.13
2017-08-05T08:59:54.807Z,29.77
2017-08-05T09:00:54.875Z,29.61
2017-08-05T09:01:54.268Z,29.66
2017-08-05T09:02:55.242Z,29.57
2017-08-05T09:03:54.970Z,29.77
2017-08-05T09:04:55.304Z,29.95
2017-08-05T09:05:55.339Z,30.19
2017-08-05T09:06:54.762Z,30.34
2017-08-05T09:07:55.463Z,30.75
2017-08-05T09:08:55.524Z,31.01
2017-08-05T09:09:55.223Z,31.22
2017-08-05T09:10:55.363Z,31.71
2017-08-05T09:11:55.649Z,32.1
2017-08-05T09:12:55.667Z,32.23
2017-08-05T09:13:56.109Z,32.3
2017-08-05T09:14:56.172Z,32.37
2017-08-05T09:15:56.293Z,32.35
2017-08-05T09:16:56.234Z,32.25
2017-08-05T09:17:55.976Z,32.16
2017-08-05T09:18:56.006Z,32.06
2017-08-05T09:19:56.404Z,32
2017-08-05T09:20:56.713Z,32.09
2017-08-05T09:21:56.783Z,32.03
2017-08-05T09:22:56.872Z,31.98
2017-08-05T09:23:57.202Z,32.16
2017-08-05T09:24:56.960Z,32.27
2017-08-05T09:25:56.953Z,32.62
2017-08-05T09:26:57.065Z,34.02
2017-08-05T09:27:57.080Z,35.64
2017-08-05T09:28:57.415Z,36.67
2017-08-05T09:29:57.469Z,37.08
2017-08-05T09:30:57.206Z,37.39
2017-08-05T09:31:57.575Z,37.31
2017-08-05T09:32:56.980Z,37
2017-08-05T09:33:57.653Z,36.62
2017-08-05T09:34:57.986Z,36.47
2017-08-05T09:35:58.028Z,36.21
2017-08-05T09:36:57.788Z,36.04
2017-08-05T09:37:58.153Z,35.45
2017-08-05T09:38:58.199Z,34.94
2017-08-05T09:39:57.924Z,34.52
2017-08-05T09:40:58.301Z,34.21
2017-08-05T09:41:58.302Z,33.8
2017-08-05T09:42:58.389Z,33.52
2017-08-05T09:43:58.103Z,33.09
2017-08-05T09:44:58.491Z,32.86
2017-08-05T09:45:57.933Z,32.65
2017-08-05T09:46:58.349Z,32.28
2017-08-05T09:47:58.671Z,32.19
2017-08-05T09:48:58.389Z,32.06
2017-08-05T09:49:58.820Z,32.03
2017-08-05T09:50:58.852Z,31.86
2017-08-05T09:51:58.932Z,31.71
2017-08-05T09:52:58.684Z,31.59
2017-08-05T09:53:59.064Z,31.28
2017-08-05T09:54:59.469Z,30.94
2017-08-05T09:55:59.488Z,30.47
2017-08-05T09:56:59.180Z,30.07
2017-08-05T09:57:59.558Z,29.7
2017-08-05T09:58:59.614Z,29.4
2017-08-05T09:59:59.660Z,29.13
2017-08-05T10:00:59.694Z,29.02
2017-08-05T10:01:59.891Z,28.83
2017-08-05T10:02:59.474Z,28.85
2017-08-05T10:03:59.831Z,28.88
2017-08-05T10:04:59.212Z,28.68
2017-08-05T10:05:59.933Z,28.65
2017-08-05T10:07:00.342Z,28.65
2017-08-05T10:08:00.816Z,28.68
2017-08-05T10:09:00.402Z,28.65
2017-08-05T10:10:00.465Z,28.7
2017-08-05T10:11:00.134Z,28.67
2017-08-05T10:12:00.219Z,28.6
2017-08-05T10:13:00.540Z,28.53
2017-08-05T10:14:00.666Z,28.48
2017-08-05T10:15:00.304Z,28.43
2017-08-05T10:16:00.369Z,28.35
2017-08-05T10:17:01.060Z,28.21
2017-08-05T10:18:01.082Z,28.17
2017-08-05T10:19:00.799Z,27.94
2017-08-05T10:20:01.124Z,27.81
2017-08-05T10:21:01.483Z,27.65
2017-08-05T10:22:01.668Z,27.62
2017-08-05T10:23:01.720Z,27.38
2017-08-05T10:24:01.470Z,27.37
2017-08-05T10:25:01.792Z,27.34
2017-08-05T10:26:01.841Z,27.42
2017-08-05T10:27:02.309Z,27.52
2017-08-05T10:28:02.073Z,27.41
2017-08-05T10:29:02.418Z,27.57
2017-08-05T10:30:02.106Z,27.53
2017-08-05T10:31:02.131Z,27.43
2017-08-05T10:32:02.139Z,27.33
2017-08-05T10:33:02.260Z,27.21
2017-08-05T10:34:02.583Z,27.12
2017-08-05T10:35:02.659Z,26.97
2017-08-05T10:36:02.699Z,26.89
2017-08-05T10:37:02.700Z,26.75
2017-08-05T10:38:02.451Z,26.67
2017-08-05T10:39:02.469Z,26.57
2017-08-05T10:40:02.766Z,26.53
2017-08-05T10:41:03.536Z,26.49
2017-08-05T10:42:03.620Z,26.52
2017-08-05T10:43:03.666Z,26.5
2017-08-05T10:44:03.393Z,26.38
2017-08-05T10:45:03.716Z,26.39
2017-08-05T10:46:03.783Z,26.31
2017-08-05T10:47:03.847Z,26.24
2017-08-05T10:48:03.877Z,26.09
2017-08-05T10:49:03.872Z,25.85
2017-08-05T10:50:03.914Z,25.56
2017-08-05T10:51:04.276Z,25.23
2017-08-05T10:52:04.327Z,24.9
2017-08-05T10:53:04.386Z,24.55
2017-08-05T10:54:04.410Z,24.39
2017-08-05T10:55:04.149Z,24.11
2017-08-05T10:56:04.232Z,24.03
2017-08-05T10:57:04.603Z,23.9
2017-08-05T10:58:04.642Z,23.81
2017-08-05T10:59:04.660Z,23.81
2017-08-05T11:00:05.069Z,23.75
2017-08-05T11:01:05.081Z,23.67
2017-08-05T11:02:05.091Z,23.66
2017-08-05T11:03:04.832Z,23.62
2017-08-05T11:04:05.189Z,23.56
2017-08-05T11:05:05.196Z,23.47
2017-08-05T11:06:05.253Z,23.41
2017-08-05T11:07:05.277Z,23.35
2017-08-05T11:08:05.382Z,23.25
2017-08-05T11:09:05.391Z,23.21
2017-08-05T11:10:05.397Z,23.18
2017-08-05T11:11:05.101Z,23.06
2017-08-05T11:12:05.466Z,23.06
2017-08-05T11:13:05.249Z,22.96
2017-08-05T11:14:05.230Z,22.97
2017-08-05T11:15:05.747Z,22.96
2017-08-05T11:16:06.240Z,22.97
2017-08-05T11:17:05.749Z,23
2017-08-05T11:18:05.702Z,23.18
2017-08-05T11:19:06.101Z,23.12
2017-08-05T11:20:06.156Z,23.25
2017-08-05T11:21:06.795Z,23.38
2017-08-05T11:22:06.586Z,23.44
2017-08-05T11:23:07.291Z,23.63
2017-08-05T11:24:06.605Z,24.17
2017-08-05T11:25:07.247Z,25.59
2017-08-05T11:26:06.985Z,26.96
2017-08-05T11:27:06.745Z,27.84
2017-08-05T11:28:07.056Z,28.51
2017-08-05T11:29:06.852Z,28.83
2017-08-05T11:30:07.326Z,29.14
2017-08-05T11:31:07.237Z,29.17
2017-08-05T11:32:06.990Z,28.98
2017-08-05T11:33:07.241Z,28.73
2017-08-05T11:34:07.315Z,28.41
2017-08-05T11:35:07.627Z,28.08
2017-08-05T11:36:07.737Z,27.55
2017-08-05T11:37:07.769Z,27.34
2017-08-05T11:38:07.826Z,27.15
2017-08-05T11:39:07.839Z,27.12
2017-08-05T11:40:07.814Z,27.12
2017-08-05T11:41:07.922Z,27.34
2017-08-05T11:42:07.645Z,27.46
2017-08-05T11:43:08.016Z,27.59
2017-08-05T11:44:08.380Z,27.74
2017-08-05T11:45:08.439Z,27.94
2017-08-05T11:46:08.469Z,27.98
2017-08-05T11:47:08.207Z,28.16
2017-08-05T11:48:08.558Z,28.2
2017-08-05T11:49:08.578Z,28.35
2017-08-05T11:50:08.291Z,28.49
2017-08-05T11:51:08.703Z,28.57
2017-08-05T11:52:08.731Z,28.55
2017-08-05T11:53:08.746Z,28.53
2017-08-05T11:54:08.863Z,28.6
2017-08-05T11:55:09.422Z,28.35
2017-08-05T11:56:09.164Z,28.2
2017-08-05T11:57:08.926Z,28.2
2017-08-05T11:58:09.252Z,28.11
2017-08-05T11:59:09.661Z,28.21
2017-08-05T12:00:09.725Z,28.08
2017-08-05T12:01:09.391Z,28.05
2017-08-05T12:02:10.132Z,27.99
2017-08-05T12:03:10.119Z,28.03
2017-08-05T12:04:10.148Z,27.87
2017-08-05T12:05:10.291Z,27.62
2017-08-05T12:06:10.218Z,27.53
2017-08-05T12:07:09.625Z,27.34
2017-08-05T12:08:10.391Z,27.3
2017-08-05T12:09:10.563Z,27.26
2017-08-05T12:10:10.294Z,27.16
2017-08-05T12:11:10.107Z,27.15
2017-08-05T12:12:10.198Z,26.97
2017-08-05T12:13:10.246Z,26.68
2017-08-05T12:14:11.371Z,26.42
2017-08-05T12:15:11.009Z,26.22
2017-08-05T12:16:11.121Z,25.89
2017-08-05T12:17:10.760Z,25.6
2017-08-05T12:18:11.200Z,25.6
2017-08-05T12:19:11.229Z,25.75
2017-08-05T12:20:10.979Z,25.99
2017-08-05T12:21:11.533Z,26.3
2017-08-05T12:22:11.262Z,26.52
2017-08-05T12:23:11.627Z,26.71
2017-08-05T12:24:11.304Z,26.9
2017-08-05T12:25:12.095Z,27.09
2017-08-05T12:26:11.724Z,27.09
2017-08-05T12:27:12.398Z,27.15
2017-08-05T12:28:12.128Z,27.26
2017-08-05T12:29:12.489Z,27.26
2017-08-05T12:30:12.897Z,27.43
2017-08-05T12:31:12.605Z,27.64
2017-08-05T12:32:13.302Z,27.64
2017-08-05T12:33:12.998Z,27.46
2017-08-05T12:34:13.337Z,27.28
2017-08-05T12:35:13.360Z,27.09
2017-08-05T12:36:13.439Z,26.69
2017-08-05T12:37:13.150Z,26.37
2017-08-05T12:38:13.159Z,25.91
2017-08-05T12:39:13.790Z,25.49
2017-08-05T12:40:14.133Z,25.27
2017-08-05T12:41:14.173Z,24.92
2017-08-05T12:42:13.909Z,24.69
2017-08-05T12:43:14.273Z,24.46
2017-08-05T12:44:13.670Z,24.39
2017-08-05T12:45:14.715Z,24.44
2017-08-05T12:46:14.784Z,24.44
2017-08-05T12:47:14.836Z,24.55
2017-08-05T12:48:14.567Z,24.78
2017-08-05T12:49:14.608Z,25
2017-08-05T12:50:14.932Z,25.29
2017-08-05T12:51:14.685Z,25.34
2017-08-05T12:52:15.042Z,25.54
2017-08-05T12:53:15.385Z,25.79
2017-08-05T12:54:15.417Z,25.89
2017-08-05T12:55:15.465Z,25.91
2017-08-05T12:56:15.485Z,25.84